Time;durP1;ratioP1;P1;durP2;ratioP2;P2;SDS_P1;SDS_P2;PMS_P1;PMS_P2;Temp;Humidity;BMP_temperature;BMP_pressure;BME280_temperature;BME280_humidity;BME280_pressure;Samples;Min_cycle;Max_cycle;Signal;HPM_P1;HPM_P2
2023/04/12 00:00:41;;;;;;;4.22;4.03;;;;;;;8.96;97.87;100291.28;6004426;23;20391;-71
2023/04/12 00:03:09;;;;;;;4.72;4.32;;;;;;;8.61;100.00;100251.22;5993287;23;20031;-71
2023/04/12 00:05:36;;;;;;;4.10;3.90;;;;;;;8.72;100.00;100280.31;5999694;23;20035;-72
2023/04/12 00:08:03;;;;;;;12.45;3.95;;;;;;;8.47;100.00;100243.25;6000141;23;20011;-71
2023/04/12 00:10:30;;;;;;;5.13;4.63;;;;;;;8.65;100.00;100281.53;6002819;23;20046;-72
2023/04/12 00:12:57;;;;;;;4.43;3.78;;;;;;;8.25;100.00;100212.09;5998381;23;20031;-71
2023/04/12 00:15:23;;;;;;;4.00;3.80;;;;;;;8.72;100.00;100290.78;6005171;23;20042;-71
2023/04/12 00:17:50;;;;;;;3.65;3.55;;;;;;;8.69;100.00;100270.00;5998648;23;20035;-72
2023/04/12 00:20:17;;;;;;;4.20;4.00;;;;;;;8.72;100.00;100289.91;6002773;23;20010;-73
2023/04/12 00:22:43;;;;;;;10.75;4.18;;;;;;;8.41;100.00;100238.31;5995439;23;20031;-72
2023/04/12 00:25:10;;;;;;;4.22;4.03;;;;;;;8.55;100.00;100259.41;6001313;23;20050;-72
2023/04/12 00:27:36;;;;;;;9.43;4.55;;;;;;;8.64;100.00;100264.16;5993257;23;20035;-71
2023/04/12 00:30:03;;;;;;;3.97;3.78;;;;;;;8.34;100.00;100222.94;5997461;23;20093;-72
2023/04/12 00:32:30;;;;;;;3.88;3.67;;;;;;;8.60;100.00;100265.25;6002338;23;20032;-72
2023/04/12 00:34:56;;;;;;;4.03;3.83;;;;;;;8.41;100.00;100233.94;5996136;23;20102;-72
2023/04/12 00:37:23;;;;;;;4.05;3.85;;;;;;;8.55;100.00;100264.63;5992807;23;20031;-72
2023/04/12 00:39:49;;;;;;;3.80;3.65;;;;;;;8.41;100.00;100226.09;6002007;23;20035;-72
2023/04/12 00:42:16;;;;;;;10.27;4.57;;;;;;;8.59;100.00;100229.53;5997696;23;20027;-72
2023/04/12 00:44:42;;;;;;;7.15;4.28;;;;;;;8.10;100.00;100151.81;5998615;23;20046;-71
2023/04/12 00:47:08;;;;;;;8.52;4.35;;;;;;;7.87;100.00;100107.72;6002698;23;20679;-72
2023/04/12 00:49:35;;;;;;;7.00;3.80;;;;;;;8.33;100.00;100168.94;6000158;23;20031;-72
2023/04/12 00:52:07;;;;;;;5.55;4.47;;;;;;;8.05;100.00;100143.34;5994431;23;20101;-72
2023/04/12 00:54:34;;;;;;;8.13;3.95;;;;;;;8.52;100.00;100217.69;6004934;23;20089;-72
2023/04/12 00:57:01;;;;;;;4.50;4.10;;;;;;;8.43;100.00;100192.03;5997715;23;20059;-72
2023/04/12 00:59:28;;;;;;;3.70;3.50;;;;;;;8.46;100.00;100191.84;6003614;23;20027;-73
2023/04/12 01:01:55;;;;;;;4.43;4.03;;;;;;;8.05;100.00;100130.28;5998465;23;20035;-72
2023/04/12 01:04:25;;;;;;;4.07;3.85;;;;;;;8.45;100.00;100184.94;5996072;23;20604;-71
2023/04/12 01:07:04;;;;;;;4.90;4.40;;;;;;;8.43;100.00;100169.34;5996802;23;20031;-72
2023/04/12 01:09:46;;;;;;;3.97;3.78;;;;;;;8.23;100.00;100136.34;5992232;23;20031;-72
2023/04/12 01:12:27;;;;;;;5.10;4.63;;;;;;;8.39;100.00;100147.69;5996796;23;20099;-72
2023/04/12 01:15:02;;;;;;;4.53;3.90;;;;;;;8.13;100.00;100117.66;6004038;23;20490;-71
2023/04/12 01:17:36;;;;;;;3.70;3.50;;;;;;;8.13;100.00;100116.84;5998417;23;20027;-71
2023/04/12 01:20:15;;;;;;;3.85;3.65;;;;;;;8.00;100.00;100080.03;6001391;23;20023;-71
2023/04/12 01:23:27;;;;;;;8.30;4.53;;;;;;;8.27;100.00;100119.56;5995011;23;20038;-71
2023/04/12 01:26:20;;;;;;;3.67;3.47;;;;;;;8.18;100.00;100101.78;5947919;23;20028;-72
2023/04/12 01:28:51;;;;;;;3.50;3.40;;;;;;;8.21;100.00;100096.38;6004736;23;20023;-71
2023/04/12 01:31:20;;;;;;;3.80;3.60;;;;;;;8.17;100.00;100087.00;6001133;23;20732;-73
2023/04/12 01:33:50;;;;;;;5.80;3.83;;;;;;;7.81;100.00;100037.50;5995910;23;20594;-71
2023/04/12 01:36:20;;;;;;;3.92;3.72;;;;;;;7.71;100.00;100016.22;5967291;23;20015;-71
2023/04/12 01:38:48;;;;;;;4.20;4.00;;;;;;;7.97;100.00;100061.91;5984282;23;20051;-72
2023/04/12 01:41:15;;;;;;;4.00;3.80;;;;;;;8.00;100.00;100053.91;6006758;23;20022;-71
2023/04/12 01:43:46;;;;;;;3.95;3.75;;;;;;;7.14;100.00;99925.13;5967911;23;20043;-71
2023/04/12 01:46:17;;;;;;;3.53;3.42;;;;;;;7.74;100.00;100014.31;5996085;23;20457;-71
2023/04/12 01:48:51;;;;;;;3.70;3.55;;;;;;;7.64;100.00;99984.34;5998011;23;20019;-71
2023/04/12 01:51:33;;;;;;;4.75;4.35;;;;;;;7.75;100.00;100002.91;6005611;23;20034;-71
2023/04/12 01:54:10;;;;;;;4.05;3.83;;;;;;;7.68;100.00;99992.88;5995655;23;20030;-71
2023/04/12 01:56:40;;;;;;;3.97;3.67;;;;;;;7.78;100.00;100000.16;6002426;23;20015;-71
2023/04/12 01:59:09;;;;;;;3.80;3.60;;;;;;;7.78;100.00;100005.38;5992901;23;20061;-71
2023/04/12 02:01:36;;;;;;;4.38;3.97;;;;;;;7.56;100.00;99956.03;5999152;23;20106;-72
2023/04/12 02:04:03;;;;;;;4.10;3.90;;;;;;;6.95;100.00;99863.44;5999544;23;20722;-72
2023/04/12 02:06:32;;;;;;;3.70;3.50;;;;;;;6.98;100.00;99855.47;5996420;23;20555;-71
2023/04/12 02:09:01;;;;;;;3.72;3.55;;;;;;;7.65;100.00;99959.91;5995951;23;20214;-71
2023/04/12 02:11:28;;;;;;;3.78;3.58;;;;;;;7.51;100.00;99933.69;6002226;23;20086;-71
2023/04/12 02:13:54;;;;;;;3.95;3.75;;;;;;;7.63;100.00;99945.25;5998627;23;20041;-71
2023/04/12 02:16:21;;;;;;;3.50;3.40;;;;;;;7.20;100.00;99885.69;6003664;23;20033;-71
2023/04/12 02:18:51;;;;;;;3.60;3.40;;;;;;;7.50;100.00;99908.50;6002205;23;20094;-71
2023/04/12 02:21:17;;;;;;;4.15;3.95;;;;;;;7.40;100.00;99902.94;6000502;23;20484;-71
2023/04/12 02:23:44;;;;;;;3.97;3.67;;;;;;;7.19;100.00;99861.34;6002758;23;20048;-71
2023/04/12 02:26:10;;;;;;;4.35;4.05;;;;;;;7.58;100.00;99922.84;5999629;23;20023;-70
2023/04/12 02:28:37;;;;;;;3.70;3.50;;;;;;;7.59;100.00;99921.06;5997698;23;20026;-72
2023/04/12 02:31:05;;;;;;;3.90;3.70;;;;;;;7.59;100.00;99905.41;5995934;23;20034;-71
2023/04/12 02:33:32;;;;;;;3.40;3.30;;;;;;;6.95;100.00;99797.38;6008303;23;20026;-72
2023/04/12 02:36:01;;;;;;;4.07;3.88;;;;;;;7.61;100.00;99903.56;5989937;23;20558;-71
2023/04/12 02:38:28;;;;;;;3.92;3.72;;;;;;;7.60;100.00;99899.28;5999485;23;20047;-71
2023/04/12 02:40:56;;;;;;;4.10;3.90;;;;;;;7.52;100.00;99897.06;5990058;23;20043;-71
2023/04/12 02:43:23;;;;;;;4.00;3.80;;;;;;;7.51;100.00;99904.97;6005060;23;20023;-71
2023/04/12 02:45:50;;;;;;;3.63;3.50;;;;;;;7.39;100.00;99869.91;5974804;23;20351;-72
2023/04/12 02:48:16;;;;;;;4.00;3.80;;;;;;;7.44;100.00;99867.91;6002964;23;20173;-72
2023/04/12 02:50:42;;;;;;;3.60;3.40;;;;;;;7.35;100.00;99847.50;6005652;23;20101;-71
2023/04/12 02:53:09;;;;;;;3.85;3.65;;;;;;;7.44;100.00;99861.81;5976309;23;20092;-72
2023/04/12 02:55:36;;;;;;;6.80;3.58;;;;;;;7.42;100.00;99848.88;6003109;23;20087;-71
2023/04/12 02:58:03;;;;;;;3.95;3.75;;;;;;;7.28;100.00;99817.44;5998163;23;20660;-72
2023/04/12 03:00:29;;;;;;;3.60;3.40;;;;;;;7.51;100.00;99852.75;6001979;23;20027;-72
2023/04/12 03:02:57;;;;;;;4.03;3.83;;;;;;;6.36;100.00;99671.78;6004150;23;20020;-72
2023/04/12 03:05:24;;;;;;;3.58;3.38;;;;;;;6.87;100.00;99731.72;6001556;23;20024;-71
2023/04/12 03:07:51;;;;;;;3.50;3.30;;;;;;;7.02;100.00;99766.63;6002980;23;20180;-71
2023/04/12 03:10:17;;;;;;;3.50;3.40;;;;;;;7.45;100.00;99821.75;6000005;23;20911;-71
2023/04/12 03:12:44;;;;;;;3.53;3.42;;;;;;;7.45;100.00;99806.91;5989867;23;20085;-72
2023/04/12 03:15:10;;;;;;;4.10;3.80;;;;;;;7.35;100.00;99788.28;6003007;23;20038;-71
2023/04/12 03:17:37;;;;;;;3.80;3.60;;;;;;;7.31;100.00;99763.28;6005131;23;20027;-72
2023/04/12 03:20:09;;;;;;;3.63;3.50;;;;;;;7.44;100.00;99784.38;6002777;23;20031;-72
2023/04/12 03:22:36;;;;;;;4.47;4.18;;;;;;;7.29;100.00;99751.25;5996995;23;20026;-71
2023/04/12 03:25:04;;;;;;;3.50;3.40;;;;;;;7.14;100.00;99722.44;5998046;23;20040;-71
2023/04/12 03:27:30;;;;;;;3.60;3.40;;;;;;;6.18;100.00;99575.41;5997732;23;20721;-70
2023/04/12 03:29:57;;;;;;;3.90;3.60;;;;;;;7.41;100.00;99747.97;5998939;23;20762;-72
2023/04/12 03:32:24;;;;;;;4.55;4.18;;;;;;;7.41;100.00;99758.41;6002595;23;20121;-71
2023/04/12 03:34:50;;;;;;;3.80;3.60;;;;;;;7.23;100.00;99715.06;5998947;23;20211;-71
2023/04/12 03:37:16;;;;;;;3.42;3.33;;;;;;;6.96;100.00;99672.09;6004044;23;20032;-71
2023/04/12 03:39:46;;;;;;;4.15;3.83;;;;;;;7.05;100.00;99682.97;5989489;23;20020;-71
2023/04/12 03:42:14;;;;;;;3.78;3.60;;;;;;;6.77;100.00;99633.13;6006526;23;20034;-72
2023/04/12 03:44:57;;;;;;;3.47;3.38;;;;;;;6.75;100.00;99640.19;6003859;23;20031;-71
2023/04/12 03:47:23;;;;;;;3.70;3.53;;;;;;;7.31;100.00;99710.25;6001513;23;20118;-71
2023/04/12 03:49:53;;;;;;;3.33;3.22;;;;;;;7.28;100.00;99718.25;6002467;23;20033;-72
2023/04/12 03:52:36;;;;;;;3.70;3.50;;;;;;;6.98;100.00;99636.34;5976372;23;20012;-71
2023/04/12 03:55:04;;;;;;;3.90;3.70;;;;;;;7.12;100.00;99666.91;5999584;23;20134;-71
2023/04/12 03:57:31;;;;;;;3.90;3.60;;;;;;;6.79;100.00;99610.44;6000627;23;20027;-71
2023/04/12 03:59:57;;;;;;;3.35;3.25;;;;;;;6.97;100.00;99620.78;5999673;23;20037;-71
2023/04/12 04:02:24;;;;;;;6.40;3.53;;;;;;;6.86;100.00;99608.31;5997395;23;20046;-71
2023/04/12 04:04:51;;;;;;;3.78;3.60;;;;;;;6.67;100.00;99590.22;5997620;23;20123;-71
2023/04/12 04:07:17;;;;;;;3.70;3.40;;;;;;;6.07;100.00;99494.38;6004479;23;20153;-71
2023/04/12 04:09:44;;;;;;;4.47;4.22;;;;;;;7.24;100.00;99643.69;5999667;23;20031;-70
2023/04/12 04:12:10;;;;;;;3.85;3.65;;;;;;;7.21;100.00;99642.06;5997736;23;20031;-70
2023/04/12 04:14:37;;;;;;;3.50;3.40;;;;;;;6.78;100.00;99576.63;5998848;23;20087;-71
2023/04/12 04:17:03;;;;;;;3.65;3.45;;;;;;;7.21;100.00;99628.19;5999700;23;20021;-71
2023/04/12 04:19:29;;;;;;;3.20;3.10;;;;;;;7.28;100.00;99642.59;6000059;23;20027;-72
2023/04/12 04:21:56;;;;;;;6.88;3.78;;;;;;;7.26;100.00;99623.56;5996190;23;20612;-71
2023/04/12 04:24:23;;;;;;;3.78;3.58;;;;;;;7.06;100.00;99590.75;6005649;23;20098;-72
2023/04/12 04:26:53;;;;;;;3.42;3.30;;;;;;;6.74;100.00;99533.38;5994296;23;20078;-71
2023/04/12 04:29:19;;;;;;;3.92;3.72;;;;;;;7.30;100.00;99614.63;6002448;23;20120;-71
2023/04/12 04:31:46;;;;;;;3.78;3.58;;;;;;;7.28;100.00;99608.66;6004568;23;20793;-71
2023/04/12 04:34:13;;;;;;;3.55;3.40;;;;;;;7.28;100.00;99604.28;6001590;23;20058;-71
2023/04/12 04:36:40;;;;;;;13.52;3.90;;;;;;;7.18;100.00;99590.91;5992886;23;20007;-71
2023/04/12 04:39:07;;;;;;;4.20;3.90;;;;;;;6.63;100.00;99505.28;5998014;23;20055;-71
2023/04/12 04:41:38;;;;;;;4.32;4.03;;;;;;;7.13;100.00;99572.03;5997171;23;20024;-71
2023/04/12 04:44:08;;;;;;;3.58;3.38;;;;;;;6.96;100.00;99538.25;5986713;23;20095;-72
2023/04/12 04:46:36;;;;;;;3.95;3.75;;;;;;;7.03;100.00;99572.66;6004631;23;20048;-74
2023/04/12 04:49:04;;;;;;;8.05;3.60;;;;;;;7.21;100.00;99576.81;6000274;23;20031;-72
2023/04/12 04:51:31;;;;;;;4.00;3.70;;;;;;;7.10;100.00;99559.19;6001382;23;20026;-71
2023/04/12 04:53:59;;;;;;;3.90;3.70;;;;;;;7.05;100.00;99555.97;5989910;23;20031;-70
2023/04/12 04:56:26;;;;;;;4.07;3.75;;;;;;;7.17;100.00;99568.31;6000406;23;20015;-70
2023/04/12 04:58:52;;;;;;;3.75;3.53;;;;;;;6.64;100.00;99480.91;5997612;23;20056;-69
2023/04/12 05:01:26;;;;;;;4.75;4.38;;;;;;;6.91;100.00;99524.59;5995853;23;20493;-70
2023/04/12 05:03:54;;;;;;;3.58;3.40;;;;;;;6.75;100.00;99493.31;5999093;23;20042;-70
2023/04/12 05:06:21;;;;;;;3.75;3.55;;;;;;;7.14;100.00;99560.69;6000487;23;20030;-70
2023/04/12 05:08:47;;;;;;;4.43;4.05;;;;;;;6.82;100.00;99504.28;6001491;23;20027;-71
2023/04/12 05:11:14;;;;;;;3.85;3.63;;;;;;;6.83;100.00;99485.09;5997092;23;20034;-70
2023/04/12 05:13:40;;;;;;;3.88;3.67;;;;;;;7.00;100.00;99513.66;5998515;23;20023;-71
2023/04/12 05:16:07;;;;;;;3.90;3.70;;;;;;;6.98;100.00;99512.91;6000180;23;20690;-71
2023/04/12 05:18:34;;;;;;;3.70;3.53;;;;;;;7.17;100.00;99536.19;5977728;23;20019;-70
2023/04/12 05:21:02;;;;;;;4.22;4.03;;;;;;;7.13;100.00;99532.91;6004614;23;20047;-70
2023/04/12 05:23:31;;;;;;;10.40;4.05;;;;;;;7.19;100.00;99522.09;6004232;23;20042;-70
2023/04/12 05:25:58;;;;;;;3.45;3.35;;;;;;;7.17;100.00;99534.41;5995148;23;20641;-70
2023/04/12 05:28:24;;;;;;;4.45;4.15;;;;;;;6.86;100.00;99474.50;6004417;23;20027;-70
2023/04/12 05:30:51;;;;;;;3.90;3.70;;;;;;;6.28;100.00;99364.75;5999558;23;20035;-70
2023/04/12 05:33:17;;;;;;;4.00;3.80;;;;;;;7.27;100.00;99506.03;6003709;23;20083;-71
2023/04/12 05:35:44;;;;;;;3.88;3.67;;;;;;;6.75;100.00;99431.59;5997428;23;20751;-70
2023/04/12 05:38:10;;;;;;;3.95;3.75;;;;;;;6.27;100.00;99351.78;5997697;23;20039;-70
2023/04/12 05:40:37;;;;;;;3.97;3.70;;;;;;;6.15;100.00;99324.66;6003374;23;20019;-70
2023/04/12 05:43:03;;;;;;;4.18;3.88;;;;;;;7.25;100.00;99501.81;6001228;23;20050;-71
2023/04/12 05:45:30;;;;;;;3.92;3.72;;;;;;;6.10;100.00;99308.47;5992687;23;20537;-71
2023/04/12 05:47:56;;;;;;;4.40;4.10;;;;;;;6.81;100.00;99413.91;6002810;23;20709;-71
2023/04/12 05:50:23;;;;;;;4.57;4.10;;;;;;;7.28;100.00;99497.28;6001421;23;20022;-70
2023/04/12 05:52:50;;;;;;;4.00;3.70;;;;;;;6.95;100.00;99448.69;5998445;23;20038;-70
2023/04/12 05:55:17;;;;;;;4.22;4.03;;;;;;;7.29;100.00;99493.72;5979384;23;20058;-70
2023/04/12 05:57:45;;;;;;;4.57;4.28;;;;;;;7.23;100.00;99469.75;5973195;23;20050;-70
2023/04/12 06:00:15;;;;;;;3.70;3.50;;;;;;;7.25;100.00;99478.34;6000413;23;20961;-70
2023/04/12 06:02:43;;;;;;;4.68;3.90;;;;;;;7.36;100.00;99479.41;5991552;23;20033;-70
2023/04/12 06:05:11;;;;;;;3.58;3.38;;;;;;;7.38;100.00;99481.94;5974220;23;20035;-71
2023/04/12 06:07:40;;;;;;;3.95;3.75;;;;;;;7.42;100.00;99473.00;5991827;23;20031;-70
2023/04/12 06:10:08;;;;;;;4.45;4.05;;;;;;;7.05;100.00;99416.88;5973658;23;20537;-71
2023/04/12 06:12:35;;;;;;;4.32;3.92;;;;;;;7.45;100.00;99478.00;5984759;23;20023;-71
2023/04/12 06:15:01;;;;;;;7.13;4.00;;;;;;;7.48;100.00;99472.63;6000885;23;20023;-71
2023/04/12 06:17:28;;;;;;;6.07;3.88;;;;;;;7.24;100.00;99429.72;6004717;23;20298;-70
2023/04/12 06:19:54;;;;;;;3.90;3.70;;;;;;;7.49;100.00;99463.84;5997736;23;20405;-71
2023/04/12 06:22:21;;;;;;;4.47;4.18;;;;;;;7.46;100.00;99452.78;6003890;23;20118;-69
2023/04/12 06:24:47;;;;;;;4.43;4.13;;;;;;;7.55;100.00;99463.47;6005951;23;20022;-70
2023/04/12 06:27:13;;;;;;;4.10;3.80;;;;;;;7.11;100.00;99388.66;6005210;23;20055;-69
2023/04/12 06:29:40;;;;;;;4.90;4.43;;;;;;;7.61;100.00;99453.63;6004970;23;20020;-70
2023/04/12 06:32:06;;;;;;;4.57;4.28;;;;;;;7.58;100.00;99452.03;5976596;23;20147;-73
2023/04/12 06:34:32;;;;;;;7.28;3.92;;;;;;;7.25;100.00;99381.78;5993863;23;20023;-69
2023/04/12 06:37:00;;;;;;;4.75;4.45;;;;;;;7.38;100.00;99399.25;5996111;23;20053;-72
2023/04/12 06:39:26;;;;;;;4.82;4.43;;;;;;;7.70;100.00;99434.78;5977984;23;20503;-71
2023/04/12 06:41:53;;;;;;;3.92;3.63;;;;;;;7.77;100.00;99439.53;5999733;23;20039;-71
2023/04/12 06:44:19;;;;;;;3.92;3.72;;;;;;;7.72;100.00;99423.31;5992438;23;20019;-70
2023/04/12 06:46:45;;;;;;;4.03;3.88;;;;;;;7.77;100.00;99433.47;6001495;23;20091;-70
2023/04/12 06:49:12;;;;;;;3.85;3.65;;;;;;;7.29;100.00;99344.97;5993549;23;20534;-69
2023/04/12 06:51:38;;;;;;;3.80;3.60;;;;;;;7.46;100.00;99341.34;5998574;23;20315;-69
2023/04/12 06:54:05;;;;;;;4.45;4.13;;;;;;;7.79;100.00;99384.59;6001034;23;20050;-69
2023/04/12 06:56:31;;;;;;;4.43;4.22;;;;;;;7.55;100.00;99338.16;6007575;23;20027;-70
2023/04/12 06:58:58;;;;;;;5.20;4.65;;;;;;;8.02;100.00;99403.22;6010407;23;20518;-69
2023/04/12 07:01:24;;;;;;;4.75;4.45;;;;;;;7.51;100.00;99323.63;6003171;23;20043;-69
2023/04/12 07:03:51;;;;;;;3.92;3.72;;;;;;;8.07;100.00;99403.78;6004196;23;20058;-69
2023/04/12 07:06:18;;;;;;;4.72;4.43;;;;;;;8.12;100.00;99388.66;5974749;23;20086;-70
2023/04/12 07:08:51;;;;;;;4.40;4.10;;;;;;;7.29;100.00;99231.94;5999123;23;20030;-69
2023/04/12 07:11:18;;;;;;;4.15;3.85;;;;;;;8.30;100.00;99402.31;5994036;23;20043;-68
2023/04/12 07:13:48;;;;;;;4.15;3.95;;;;;;;8.28;100.00;99384.13;5999590;23;20121;-63
2023/04/12 07:16:15;;;;;;;4.47;4.28;;;;;;;8.11;100.00;99364.28;5998868;23;20058;-68
2023/04/12 07:18:44;;;;;;;4.72;4.45;;;;;;;7.89;100.00;99343.06;5987950;23;20089;-70
2023/04/12 07:21:16;;;;;;;4.30;4.10;;;;;;;8.14;100.00;99371.13;6001745;23;20031;-69
2023/04/12 07:23:43;;;;;;;3.90;3.70;;;;;;;7.79;100.00;99317.53;6002607;23;20610;-70
2023/04/12 07:26:09;;;;;;;4.50;4.30;;;;;;;7.74;100.00;99309.16;5991187;23;20420;-69
2023/04/12 07:28:36;;;;;;;4.05;3.83;;;;;;;8.03;100.00;99355.28;5995233;23;20027;-69
2023/04/12 07:31:06;;;;;;;4.65;3.92;;;;;;;8.24;100.00;99366.13;6000300;23;20105;-70
2023/04/12 07:33:34;;;;;;;4.10;3.90;;;;;;;8.36;100.00;99357.50;5999574;23;20019;-68
2023/04/12 07:36:02;;;;;;;4.20;4.00;;;;;;;8.08;100.00;99303.53;6003076;23;20058;-71
2023/04/12 07:38:28;;;;;;;4.13;3.90;;;;;;;8.07;100.00;99301.88;5996431;23;20056;-70
2023/04/12 07:40:55;;;;;;;4.53;4.20;;;;;;;8.41;100.00;99349.38;5971715;23;20078;-69
2023/04/12 07:43:22;;;;;;;3.90;3.70;;;;;;;8.49;100.00;99339.28;5999847;23;20035;-70
2023/04/12 07:45:48;;;;;;;4.15;3.95;;;;;;;8.23;100.00;99276.44;6000488;23;20031;-70
2023/04/12 07:48:15;;;;;;;3.80;3.60;;;;;;;8.83;100.00;99347.53;6000218;23;20033;-69
2023/04/12 07:50:41;;;;;;;4.15;3.85;;;;;;;8.79;100.00;99347.72;6002755;23;20566;-70
2023/04/12 07:53:22;;;;;;;4.70;4.40;;;;;;;8.85;100.00;99345.63;5998006;23;20023;-69
2023/04/12 07:55:49;;;;;;;4.10;3.90;;;;;;;8.83;100.00;99342.28;6002980;23;20019;-68
2023/04/12 07:58:17;;;;;;;4.57;4.18;;;;;;;8.89;100.00;99336.63;6001540;23;20038;-70
2023/04/12 08:00:45;;;;;;;4.28;4.05;;;;;;;8.85;100.00;99327.31;5995098;23;20328;-68
2023/04/12 08:03:13;;;;;;;4.10;3.90;;;;;;;8.77;100.00;99301.69;6007465;23;20679;-67
2023/04/12 08:05:40;;;;;;;5.47;4.57;;;;;;;8.70;100.00;99293.41;6005454;23;20046;-68
2023/04/12 08:08:08;;;;;;;4.22;4.03;;;;;;;9.11;100.00;99346.50;6003458;23;20081;-70
2023/04/12 08:10:36;;;;;;;4.88;4.07;;;;;;;9.12;100.00;99337.69;6002140;23;20050;-68
2023/04/12 08:13:04;;;;;;;4.10;3.90;;;;;;;8.97;100.00;99302.94;6005510;23;20164;-70
2023/04/12 08:15:30;;;;;;;4.10;3.90;;;;;;;8.83;100.00;99282.13;6004367;23;20023;-70
2023/04/12 08:18:00;;;;;;;4.10;3.90;;;;;;;9.29;100.00;99341.78;5996764;23;20040;-70
2023/04/12 08:20:27;;;;;;;4.22;4.00;;;;;;;9.48;100.00;99339.59;6000565;23;20015;-69
2023/04/12 08:22:53;;;;;;;4.25;3.95;;;;;;;9.43;100.00;99325.97;6007149;23;20079;-68
2023/04/12 08:25:21;;;;;;;4.03;3.83;;;;;;;9.61;100.00;99325.63;5994759;23;20096;-68
2023/04/12 08:27:49;;;;;;;4.30;4.10;;;;;;;9.52;100.00;99285.19;6007066;23;20019;-68
2023/04/12 08:30:16;;;;;;;4.20;4.00;;;;;;;9.97;100.00;99320.38;5992171;23;20026;-69
2023/04/12 08:32:42;;;;;;;4.20;4.00;;;;;;;9.51;100.00;99281.75;6001089;23;20083;-69
2023/04/12 08:35:10;;;;;;;4.45;4.25;;;;;;;9.77;100.00;99326.22;6001299;23;20820;-71
2023/04/12 08:37:36;;;;;;;4.47;4.28;;;;;;;9.73;100.00;99330.81;5982539;23;20027;-70
2023/04/12 08:40:05;;;;;;;4.40;4.15;;;;;;;9.74;100.00;99314.19;6002460;23;20034;-66
2023/04/12 08:42:36;;;;;;;4.40;4.20;;;;;;;9.35;100.00;99292.44;5997269;23;20107;-67
2023/04/12 08:45:06;;;;;;;4.82;4.63;;;;;;;9.49;100.00;99309.81;6005040;23;20062;-66
2023/04/12 08:47:36;;;;;;;4.53;4.30;;;;;;;9.67;100.00;99327.81;6004007;23;20038;-68
2023/04/12 08:50:07;;;;;;;4.40;4.20;;;;;;;9.79;100.00;99340.03;5987985;23;20079;-68
2023/04/12 08:52:34;;;;;;;4.75;4.55;;;;;;;9.83;100.00;99331.03;5999908;23;20486;-69
2023/04/12 08:55:06;;;;;;;4.28;4.07;;;;;;;9.86;100.00;99327.34;5998984;23;20023;-68
2023/04/12 08:57:34;;;;;;;5.68;4.93;;;;;;;9.80;100.00;99320.75;6006603;23;20035;-67
2023/04/12 09:00:02;;;;;;;4.50;4.20;;;;;;;9.83;100.00;99317.91;5976338;23;20095;-67
2023/04/12 09:02:30;;;;;;;4.75;4.38;;;;;;;9.48;100.00;99268.88;6008847;23;20035;-68
2023/04/12 09:04:59;;;;;;;4.70;4.40;;;;;;;9.98;100.00;99335.19;6005325;23;20024;-68
2023/04/12 09:07:27;;;;;;;4.70;4.40;;;;;;;9.75;100.00;99299.28;6002267;23;20046;-67
2023/04/12 09:09:56;;;;;;;4.30;4.10;;;;;;;10.03;100.00;99329.59;5973968;23;20035;-69
2023/04/12 09:12:23;;;;;;;4.30;4.10;;;;;;;9.85;100.00;99294.22;6003383;23;20577;-68
2023/04/12 09:15:12;;;;;;;4.18;3.97;;;;;;;10.17;100.00;99320.75;5999815;23;20032;-68
2023/04/12 09:17:40;;;;;;;4.68;4.38;;;;;;;10.24;100.00;99311.47;5994983;23;20117;-68
2023/04/12 09:20:16;;;;;;;4.18;3.97;;;;;;;10.18;100.00;99323.25;5998607;23;20031;-68
2023/04/12 09:22:44;;;;;;;4.30;4.10;;;;;;;10.32;100.00;99324.91;6000393;23;20039;-68
2023/04/12 09:25:11;;;;;;;4.32;4.03;;;;;;;10.55;100.00;99314.50;5993933;23;20426;-68
2023/04/12 09:27:48;;;;;;;4.30;4.10;;;;;;;10.70;100.00;99318.59;6001249;23;20099;-69
2023/04/12 09:30:19;;;;;;;4.70;4.40;;;;;;;10.71;100.00;99314.19;6006985;23;20057;-69
2023/04/12 09:32:49;;;;;;;5.30;4.90;;;;;;;10.62;100.00;99305.19;5996495;23;20054;-68
2023/04/12 09:35:16;;;;;;;6.90;4.82;;;;;;;10.52;100.00;99312.09;6007800;23;20081;-68
2023/04/12 09:37:42;;;;;;;4.53;4.22;;;;;;;10.35;100.00;99284.50;5992545;23;20129;-68
2023/04/12 09:40:09;;;;;;;4.38;4.18;;;;;;;10.36;100.00;99305.38;6005094;23;20093;-68
2023/04/12 09:42:52;;;;;;;5.20;4.90;;;;;;;10.17;100.00;99279.63;5992994;23;20375;-69
2023/04/12 09:45:21;;;;;;;4.18;3.97;;;;;;;10.44;100.00;99317.06;6002363;23;20019;-69
2023/04/12 09:47:48;;;;;;;5.10;4.80;;;;;;;10.24;100.00;99306.22;5975757;23;20140;-68
2023/04/12 09:50:26;;;;;;;5.22;4.93;;;;;;;10.22;100.00;99317.78;6005745;23;20022;-68
2023/04/12 09:52:56;;;;;;;5.03;4.65;;;;;;;9.85;100.00;99260.16;6000798;23;20020;-68
2023/04/12 09:55:25;;;;;;;6.78;4.68;;;;;;;10.04;100.00;99281.44;5995168;23;20007;-68
2023/04/12 09:57:52;;;;;;;4.97;4.68;;;;;;;9.87;100.00;99284.47;6000571;23;20102;-68
2023/04/12 10:00:24;;;;;;;4.28;4.07;;;;;;;10.11;100.00;99303.66;6000928;23;20031;-68
2023/04/12 10:02:52;;;;;;;4.60;4.20;;;;;;;10.10;100.00;99312.50;6003851;23;20034;-68
2023/04/12 10:05:21;;;;;;;4.38;4.18;;;;;;;9.62;100.00;99261.81;6001513;23;20007;-68
2023/04/12 10:07:48;;;;;;;4.60;4.30;;;;;;;10.03;100.00;99306.00;5995157;23;20098;-67
2023/04/12 10:10:17;;;;;;;5.03;4.53;;;;;;;10.31;100.00;99307.47;5989617;23;20011;-70
2023/04/12 10:12:45;;;;;;;6.22;5.72;;;;;;;10.55;100.00;99298.75;5998433;23;20035;-69
2023/04/12 10:15:16;;;;;;;4.97;4.68;;;;;;;10.82;100.00;99303.72;6005206;23;20011;-69
2023/04/12 10:17:45;;;;;;;4.60;4.30;;;;;;;10.93;100.00;99297.66;5995554;23;20035;-70
2023/04/12 10:20:14;;;;;;;4.68;4.40;;;;;;;10.86;100.00;99286.78;5997806;23;20095;-68
2023/04/12 10:22:45;;;;;;;5.68;5.28;;;;;;;10.83;100.00;99294.91;5997145;23;20047;-69
2023/04/12 10:25:17;;;;;;;4.30;4.10;;;;;;;10.31;100.00;99286.50;5975806;23;22451;-68
2023/04/12 10:27:45;;;;;;;4.40;4.20;;;;;;;10.14;100.00;99294.72;5991810;23;20058;-69
2023/04/12 10:30:22;;;;;;;4.55;4.32;;;;;;;10.17;100.00;99300.59;5998706;23;20062;-68
2023/04/12 10:33:03;;;;;;;4.38;4.10;;;;;;;10.26;100.00;99306.09;5986885;23;20023;-68
2023/04/12 10:36:05;;;;;;;4.28;4.07;;;;;;;10.35;100.00;99306.31;5994184;23;20086;-68
2023/04/12 10:38:46;;;;;;;4.25;4.05;;;;;;;10.17;100.00;99211.47;5998330;23;20035;-68
2023/04/12 10:41:19;;;;;;;4.10;3.90;;;;;;;10.82;100.00;99301.09;5998440;23;20015;-69
2023/04/12 10:43:50;;;;;;;4.45;4.25;;;;;;;10.70;100.00;99307.25;5988935;23;20028;-68
2023/04/12 10:46:38;;;;;;;4.20;4.00;;;;;;;10.52;100.00;99305.06;6003338;23;20027;-68
2023/04/12 10:49:08;;;;;;;4.05;3.85;;;;;;;10.37;100.00;99314.91;5952281;23;20490;-68
2023/04/12 10:51:35;;;;;;;4.57;4.38;;;;;;;10.26;100.00;99285.97;6000384;23;20043;-68
2023/04/12 10:54:07;;;;;;;11.85;11.20;;;;;;;10.44;100.00;99317.06;5907057;23;20764;-68
2023/04/12 10:56:39;;;;;;;5.05;4.65;;;;;;;10.43;100.00;99321.47;5986510;23;20104;-68
2023/04/12 10:59:09;;;;;;;4.43;4.22;;;;;;;10.41;100.00;99318.13;6000478;23;20040;-67
2023/04/12 11:01:36;;;;;;;5.05;4.63;;;;;;;10.46;100.00;99312.53;5995146;23;20038;-68
2023/04/12 11:04:13;;;;;;;4.20;4.00;;;;;;;10.38;100.00;99282.50;6005163;23;20041;-67
2023/04/12 11:06:49;;;;;;;4.80;4.50;;;;;;;10.83;100.00;99304.56;5988014;23;20090;-69
2023/04/12 11:09:17;;;;;;;4.53;4.20;;;;;;;10.96;100.00;99307.91;6003447;23;20037;-67
2023/04/12 11:11:44;;;;;;;5.10;4.70;;;;;;;11.13;100.00;99336.34;6005935;23;20030;-68
2023/04/12 11:14:11;;;;;;;4.50;4.30;;;;;;;11.06;100.00;99313.31;5975208;23;20083;-67
2023/04/12 11:17:05;;;;;;;7.50;5.00;;;;;;;11.05;100.00;99309.03;5995698;23;20094;-67
2023/04/12 11:19:52;;;;;;;4.78;4.50;;;;;;;11.24;100.00;99317.13;6001362;23;20019;-68
2023/04/12 11:22:21;;;;;;;5.65;5.22;;;;;;;10.75;100.00;99256.09;5971494;23;20047;-68
2023/04/12 11:24:50;;;;;;;5.30;5.00;;;;;;;11.20;100.00;99289.44;5967830;23;20034;-68
2023/04/12 11:27:19;;;;;;;5.05;4.75;;;;;;;11.13;100.00;99296.13;5997659;23;20026;-68
2023/04/12 11:29:55;;;;;;;5.30;4.95;;;;;;;11.00;100.00;99277.84;5993666;23;20601;-69
2023/04/12 11:32:23;;;;;;;5.13;4.82;;;;;;;11.09;100.00;99264.03;5998800;23;20023;-70
2023/04/12 11:34:50;;;;;;;6.05;5.38;;;;;;;11.63;100.00;99274.75;6001972;23;20123;-69
2023/04/12 11:37:19;;;;;;;5.65;4.50;;;;;;;11.80;100.00;99263.72;6004364;23;20027;-68